createdAt,value
2023-02-19T00:00:34.141Z,20.74
2023-02-19T00:03:05.154Z,20.73
2023-02-19T00:05:38.017Z,20.71
2023-02-19T00:08:09.085Z,20.69
2023-02-19T00:10:39.789Z,20.67
2023-02-19T00:13:10.526Z,20.67
2023-02-19T00:15:41.351Z,20.64
2023-02-19T00:18:12.115Z,20.65
2023-02-19T00:20:43.355Z,20.62
2023-02-19T00:23:14.031Z,20.61
2023-02-19T00:25:45.036Z,20.63
2023-02-19T00:28:15.799Z,20.64
2023-02-19T00:30:46.559Z,20.63
2023-02-19T00:33:18.274Z,20.61
2023-02-19T00:35:49.220Z,20.59
2023-02-19T00:38:20.162Z,20.57
2023-02-19T00:40:51.006Z,20.55
2023-02-19T00:43:21.777Z,20.54
2023-02-19T00:45:52.561Z,20.51
2023-02-19T00:48:23.375Z,20.49
2023-02-19T00:50:54.260Z,20.48
2023-02-19T00:53:25.206Z,20.46
2023-02-19T00:55:55.996Z,20.44
2023-02-19T00:58:26.783Z,20.43
2023-02-19T01:00:57.582Z,20.41
2023-02-19T01:03:28.896Z,20.39
2023-02-19T01:05:59.708Z,20.37
2023-02-19T01:08:31.407Z,20.36
2023-02-19T01:11:03.325Z,20.36
2023-02-19T01:13:34.792Z,20.35
2023-02-19T01:16:10.572Z,20.37
2023-02-19T01:18:41.688Z,20.36
2023-02-19T01:21:16.541Z,20.35
2023-02-19T01:23:47.330Z,20.34
2023-02-19T01:26:20.406Z,20.32
2023-02-19T01:28:51.799Z,20.30
2023-02-19T01:31:24.611Z,20.28
2023-02-19T01:33:57.323Z,20.25
2023-02-19T01:36:30.078Z,20.23
2023-02-19T01:39:04.097Z,20.24
2023-02-19T01:41:38.999Z,20.26
2023-02-19T01:44:24.506Z,20.26
2023-02-19T01:46:57.738Z,20.25
2023-02-19T01:49:32.957Z,20.24
2023-02-19T01:52:07.218Z,20.25
2023-02-19T01:54:41.874Z,20.23
2023-02-19T01:57:18.192Z,20.21
2023-02-19T01:59:52.361Z,20.21
2023-02-19T02:02:25.172Z,20.19
2023-02-19T02:04:56.566Z,20.19
2023-02-19T02:07:45.336Z,20.18
2023-02-19T02:10:22.415Z,20.15
2023-02-19T02:13:00.003Z,20.14
2023-02-19T02:15:37.633Z,20.12
2023-02-19T02:18:16.936Z,20.11
2023-02-19T02:21:05.677Z,20.10
2023-02-19T02:23:51.034Z,20.09
2023-02-19T02:26:44.894Z,20.09
2023-02-19T02:29:46.477Z,20.09
2023-02-19T02:32:23.235Z,20.10
2023-02-19T02:35:00.068Z,20.09
2023-02-19T02:37:35.973Z,20.08
2023-02-19T02:40:08.677Z,20.07
2023-02-19T02:42:41.943Z,20.06
2023-02-19T02:45:36.947Z,20.05
2023-02-19T02:48:28.556Z,20.04
2023-02-19T02:51:05.392Z,20.04
2023-02-19T02:54:00.251Z,20.03
2023-02-19T02:56:32.280Z,20.03
2023-02-19T02:59:05.324Z,19.99
2023-02-19T03:02:00.395Z,20.00
2023-02-19T03:04:59.356Z,20.00
2023-02-19T03:07:35.301Z,19.99
2023-02-19T03:10:09.819Z,19.97
2023-02-19T03:12:59.540Z,20.01
2023-02-19T03:15:52.858Z,20.06
2023-02-19T03:18:44.287Z,20.10
2023-02-19T03:21:18.272Z,20.13
2023-02-19T03:24:08.666Z,20.14
2023-02-19T03:26:42.054Z,20.17
2023-02-19T03:29:24.157Z,20.18
2023-02-19T03:31:58.340Z,20.22
2023-02-19T03:34:32.620Z,20.25
2023-02-19T03:37:10.195Z,20.26
2023-02-19T03:39:46.361Z,20.29
2023-02-19T03:42:26.106Z,20.31
2023-02-19T03:45:10.820Z,20.35
2023-02-19T03:47:49.933Z,20.38
2023-02-19T03:50:25.413Z,20.38
2023-02-19T03:53:05.812Z,20.43
2023-02-19T03:55:46.193Z,20.44
2023-02-19T03:58:22.652Z,20.46
2023-02-19T04:00:58.770Z,20.48
2023-02-19T04:03:35.336Z,20.48
2023-02-19T04:06:10.833Z,20.47
2023-02-19T04:08:45.421Z,20.49
2023-02-19T04:11:18.063Z,20.50
2023-02-19T04:13:52.521Z,20.51
2023-02-19T04:16:27.605Z,20.51
2023-02-19T04:19:03.510Z,20.52
2023-02-19T04:21:37.588Z,20.52
2023-02-19T04:24:13.844Z,20.51
2023-02-19T04:26:46.362Z,20.49
2023-02-19T04:29:17.046Z,20.49
2023-02-19T04:31:47.841Z,20.49
2023-02-19T04:34:18.570Z,20.49
2023-02-19T04:36:49.210Z,20.49
2023-02-19T04:39:20.124Z,20.48
2023-02-19T04:41:50.990Z,20.48
2023-02-19T04:44:21.911Z,20.46
2023-02-19T04:46:52.589Z,20.45
2023-02-19T04:49:23.523Z,20.43
2023-02-19T04:51:54.228Z,20.41
2023-02-19T04:54:25.178Z,20.39
2023-02-19T04:56:56.234Z,20.37
2023-02-19T04:59:26.983Z,20.36
2023-02-19T05:01:58.106Z,20.37
2023-02-19T05:04:28.868Z,20.36
2023-02-19T05:06:59.597Z,20.34
2023-02-19T05:09:30.247Z,20.32
2023-02-19T05:12:00.854Z,20.31
2023-02-19T05:14:31.526Z,20.25
2023-02-19T05:17:02.272Z,20.27
2023-02-19T05:19:33.134Z,20.27
2023-02-19T05:22:03.836Z,20.26
2023-02-19T05:24:34.553Z,20.25
2023-02-19T05:27:05.396Z,20.23
2023-02-19T05:29:36.135Z,20.23
2023-02-19T05:32:06.892Z,20.21
2023-02-19T05:34:37.606Z,20.20
2023-02-19T05:37:08.346Z,20.18
2023-02-19T05:39:40.166Z,20.18
2023-02-19T05:42:10.822Z,20.18
2023-02-19T05:44:41.483Z,20.18
2023-02-19T05:47:12.621Z,20.19
2023-02-19T05:49:43.349Z,20.17
2023-02-19T05:52:14.102Z,20.20
2023-02-19T05:54:44.848Z,20.20
2023-02-19T05:57:15.539Z,20.18
2023-02-19T05:59:46.162Z,20.17
2023-02-19T06:02:16.851Z,20.18
2023-02-19T06:04:47.503Z,20.16
2023-02-19T06:07:18.223Z,20.14
2023-02-19T06:09:51.108Z,20.12
2023-02-19T06:12:21.752Z,20.10
2023-02-19T06:14:52.694Z,20.12
2023-02-19T06:17:23.737Z,20.12
2023-02-19T06:19:54.779Z,20.12
2023-02-19T06:22:25.601Z,20.11
2023-02-19T06:24:56.345Z,20.11
2023-02-19T06:27:27.088Z,20.09
2023-02-19T06:29:57.834Z,20.08
2023-02-19T06:32:28.513Z,20.08
2023-02-19T06:34:59.313Z,20.06
2023-02-19T06:37:30.358Z,20.05
2023-02-19T06:40:01.103Z,20.05
2023-02-19T06:42:34.423Z,20.06
2023-02-19T06:45:05.336Z,20.05
2023-02-19T06:47:39.140Z,20.04
2023-02-19T06:50:10.748Z,20.02
2023-02-19T06:52:41.634Z,20.03
2023-02-19T06:55:13.598Z,20.02
2023-02-19T06:57:44.228Z,20.02
2023-02-19T07:00:16.390Z,20.03
2023-02-19T07:02:47.075Z,20.02
2023-02-19T07:05:17.991Z,20.04
2023-02-19T07:07:49.461Z,20.05
2023-02-19T07:10:20.733Z,20.03
2023-02-19T07:12:51.573Z,20.03
2023-02-19T07:15:22.424Z,20.03
2023-02-19T07:17:53.373Z,20.03
2023-02-19T07:20:24.111Z,20.02
2023-02-19T07:22:54.890Z,20.02
2023-02-19T07:25:25.630Z,19.99
2023-02-19T07:27:56.885Z,20.01
2023-02-19T07:30:27.733Z,19.99
2023-02-19T07:32:58.605Z,19.99
2023-02-19T07:35:30.203Z,19.98
2023-02-19T07:38:01.293Z,19.93
2023-02-19T07:40:32.499Z,19.94
2023-02-19T07:43:03.555Z,19.94
2023-02-19T07:45:34.740Z,19.93
2023-02-19T07:48:05.874Z,19.95
2023-02-19T07:50:36.736Z,19.96
2023-02-19T07:53:07.604Z,19.97
2023-02-19T07:55:38.530Z,20.00
2023-02-19T07:58:09.431Z,20.04
2023-02-19T08:00:40.973Z,20.05
2023-02-19T08:03:12.268Z,20.01
2023-02-19T08:05:45.225Z,20.01
2023-02-19T08:08:17.318Z,19.99
2023-02-19T08:11:05.632Z,19.98
2023-02-19T08:13:36.814Z,19.95
2023-02-19T08:16:26.605Z,19.93
2023-02-19T08:19:04.450Z,19.91
2023-02-19T08:21:35.474Z,19.90
2023-02-19T08:24:07.147Z,19.89
2023-02-19T08:26:38.650Z,19.86
2023-02-19T08:29:09.703Z,19.82
2023-02-19T08:31:40.840Z,19.79
2023-02-19T08:34:14.921Z,19.75
2023-02-19T08:36:45.965Z,19.75
2023-02-19T08:39:17.141Z,19.73
2023-02-19T08:41:49.244Z,19.72
2023-02-19T08:44:20.843Z,19.72
2023-02-19T08:46:54.016Z,19.69
2023-02-19T08:49:28.342Z,19.69
2023-02-19T08:51:59.563Z,19.70
2023-02-19T08:54:31.360Z,19.70
2023-02-19T08:57:05.479Z,19.70
2023-02-19T08:59:36.705Z,19.71
2023-02-19T09:02:07.668Z,19.72
2023-02-19T09:04:39.517Z,19.76
2023-02-19T09:07:11.198Z,19.76
2023-02-19T09:09:42.432Z,19.76
2023-02-19T09:12:14.742Z,19.76
2023-02-19T09:14:46.692Z,19.75
2023-02-19T09:17:17.822Z,19.75
2023-02-19T09:19:50.856Z,19.76
2023-02-19T09:22:22.693Z,19.76
2023-02-19T09:24:53.930Z,19.76
2023-02-19T09:27:24.867Z,19.75
2023-02-19T09:29:56.012Z,19.75
2023-02-19T09:32:27.602Z,19.74
2023-02-19T09:34:59.352Z,19.74
2023-02-19T09:37:32.025Z,19.73
2023-02-19T09:40:03.917Z,19.76
2023-02-19T09:42:35.743Z,19.78
2023-02-19T09:45:09.203Z,19.80
2023-02-19T09:47:40.542Z,19.83
2023-02-19T09:50:17.914Z,19.86
2023-02-19T09:52:53.446Z,19.90
2023-02-19T09:55:32.817Z,19.95
2023-02-19T09:58:10.036Z,19.98
2023-02-19T10:00:42.709Z,19.98
2023-02-19T10:03:18.600Z,20.04
2023-02-19T10:05:49.932Z,20.09
2023-02-19T10:08:22.443Z,20.13
2023-02-19T10:10:54.466Z,20.17
2023-02-19T10:13:31.407Z,20.17
2023-02-19T10:16:06.520Z,20.23
2023-02-19T10:18:42.564Z,20.29
2023-02-19T10:21:20.666Z,20.32
2023-02-19T10:23:55.161Z,20.35
2023-02-19T10:26:28.285Z,20.37
2023-02-19T10:28:59.516Z,20.39
2023-02-19T10:31:32.389Z,20.40
2023-02-19T10:34:08.771Z,20.47
2023-02-19T10:36:45.314Z,20.48
2023-02-19T10:39:37.109Z,20.54
2023-02-19T10:42:15.287Z,20.61
2023-02-19T10:44:49.211Z,20.66
2023-02-19T10:47:23.457Z,20.70
2023-02-19T10:49:59.338Z,20.74
2023-02-19T10:52:34.517Z,20.77
2023-02-19T10:55:26.720Z,20.81
2023-02-19T10:57:58.439Z,20.82
2023-02-19T11:00:31.481Z,20.88
2023-02-19T11:03:22.885Z,20.90
2023-02-19T11:06:02.988Z,20.91
2023-02-19T11:08:47.300Z,20.92
2023-02-19T11:11:36.663Z,20.95
2023-02-19T11:14:15.866Z,20.96
2023-02-19T11:16:52.126Z,20.96
2023-02-19T11:19:41.152Z,20.97
2023-02-19T11:22:33.412Z,21.02
2023-02-19T11:25:25.673Z,21.05
2023-02-19T11:28:08.274Z,21.07
2023-02-19T11:30:42.623Z,21.08
2023-02-19T11:33:28.587Z,21.08
2023-02-19T11:39:20.759Z,21.15
2023-02-19T11:42:12.654Z,21.15
2023-02-19T11:44:53.397Z,21.17
2023-02-19T11:47:56.780Z,21.21
2023-02-19T11:50:36.574Z,21.22
2023-02-19T11:53:21.834Z,21.23
2023-02-19T11:56:05.040Z,21.25
2023-02-19T11:58:57.976Z,21.25
2023-02-19T12:01:49.790Z,21.28
2023-02-19T12:04:49.151Z,21.27
2023-02-19T12:07:31.245Z,21.28
2023-02-19T12:10:15.170Z,21.28
2023-02-19T12:12:57.556Z,21.33
2023-02-19T12:15:47.946Z,21.37
2023-02-19T12:18:48.920Z,21.41
2023-02-19T12:21:37.422Z,21.43
2023-02-19T12:24:26.836Z,21.47
2023-02-19T12:27:12.225Z,21.50
2023-02-19T12:30:14.800Z,21.54
2023-02-19T12:32:59.717Z,21.59
2023-02-19T12:35:48.530Z,21.63
2023-02-19T12:38:28.732Z,21.69
2023-02-19T12:41:13.310Z,21.72
2023-02-19T12:43:52.629Z,21.74
2023-02-19T12:46:28.372Z,21.76
2023-02-19T12:49:02.939Z,21.78
2023-02-19T12:51:41.971Z,21.81
2023-02-19T12:54:20.199Z,21.84
2023-02-19T12:56:56.707Z,21.86
2023-02-19T12:59:34.419Z,21.88
2023-02-19T13:02:16.323Z,21.90
2023-02-19T13:04:52.960Z,21.93
2023-02-19T13:07:29.512Z,21.96
2023-02-19T13:10:07.843Z,21.98
2023-02-19T13:12:41.893Z,22.00
2023-02-19T13:15:19.897Z,22.04
2023-02-19T13:17:55.615Z,22.04
2023-02-19T13:20:32.749Z,22.02
2023-02-19T13:23:27.136Z,21.93
2023-02-19T13:26:14.358Z,22.00
2023-02-19T13:29:00.573Z,22.05
2023-02-19T13:31:59.313Z,22.07
2023-02-19T13:34:47.890Z,22.09
2023-02-19T13:37:20.646Z,22.10
2023-02-19T13:39:53.897Z,22.12
2023-02-19T13:42:32.598Z,22.14
2023-02-19T13:45:06.443Z,22.16
2023-02-19T13:48:03.268Z,22.18
2023-02-19T13:50:35.753Z,22.19
2023-02-19T13:53:44.933Z,22.23
2023-02-19T13:56:39.181Z,22.27
2023-02-19T13:59:36.100Z,22.28
2023-02-19T14:02:15.984Z,22.29
2023-02-19T14:05:00.258Z,22.31
2023-02-19T14:07:54.680Z,22.33
2023-02-19T14:11:02.710Z,22.34
2023-02-19T14:14:06.529Z,22.36
2023-02-19T14:16:55.999Z,22.36
2023-02-19T14:19:53.719Z,22.40
2023-02-19T14:23:10.872Z,22.41
2023-02-19T14:26:05.262Z,22.42
2023-02-19T14:28:42.123Z,22.43
2023-02-19T14:31:23.761Z,22.46
2023-02-19T14:33:56.676Z,22.49
2023-02-19T14:36:50.295Z,22.49
2023-02-19T14:39:25.585Z,22.49
2023-02-19T14:41:58.773Z,22.50
2023-02-19T14:44:32.860Z,22.52
2023-02-19T14:47:09.146Z,22.53
2023-02-19T14:49:44.554Z,22.52
2023-02-19T14:52:21.695Z,22.50
2023-02-19T14:54:55.595Z,22.51
2023-02-19T14:57:30.113Z,22.53
2023-02-19T15:00:02.922Z,22.54
2023-02-19T15:02:43.058Z,22.54
2023-02-19T15:05:20.602Z,22.53
2023-02-19T15:07:52.373Z,22.54
2023-02-19T15:10:23.834Z,22.56
2023-02-19T15:12:58.841Z,22.57
2023-02-19T15:15:32.871Z,22.57
2023-02-19T15:18:05.481Z,22.55
2023-02-19T15:20:39.789Z,22.55
2023-02-19T15:23:18.152Z,22.58
2023-02-19T15:25:50.204Z,22.58
2023-02-19T15:28:29.997Z,22.58
2023-02-19T15:31:14.842Z,22.56
2023-02-19T15:33:53.467Z,22.54
2023-02-19T15:36:31.425Z,22.49
2023-02-19T15:39:04.031Z,22.51
2023-02-19T15:41:38.121Z,22.51
2023-02-19T15:44:23.581Z,22.49
2023-02-19T15:46:55.109Z,22.49
2023-02-19T15:49:33.377Z,22.49
2023-02-19T15:52:10.233Z,22.48
2023-02-19T15:54:51.978Z,22.48
2023-02-19T15:57:29.248Z,22.48
2023-02-19T16:00:04.885Z,22.49
2023-02-19T16:02:37.325Z,22.48
2023-02-19T16:05:17.989Z,22.47
2023-02-19T16:07:48.909Z,22.45
2023-02-19T16:10:25.024Z,22.44
2023-02-19T16:13:01.080Z,22.45
2023-02-19T16:15:34.418Z,22.43
2023-02-19T16:18:06.093Z,22.41
2023-02-19T16:20:38.160Z,22.40
2023-02-19T16:23:15.256Z,22.37
2023-02-19T16:25:48.170Z,22.37
2023-02-19T16:28:23.260Z,22.35
2023-02-19T16:31:00.985Z,22.34
2023-02-19T16:33:38.920Z,22.33
2023-02-19T16:36:35.792Z,22.32
2023-02-19T16:39:21.276Z,22.33
2023-02-19T16:42:24.031Z,22.32
2023-02-19T16:44:54.914Z,22.31
2023-02-19T16:47:47.611Z,22.29
2023-02-19T16:50:21.626Z,22.28
2023-02-19T16:52:58.242Z,22.29
2023-02-19T16:55:30.058Z,22.28
2023-02-19T16:58:01.279Z,22.27
2023-02-19T17:00:33.316Z,22.27
2023-02-19T17:03:09.175Z,22.29
2023-02-19T17:05:41.512Z,22.30
2023-02-19T17:08:35.106Z,22.31
2023-02-19T17:11:08.841Z,22.32
2023-02-19T17:13:38.297Z,22.32
2023-02-19T17:16:13.623Z,22.35
2023-02-19T17:18:44.678Z,22.36
2023-02-19T17:21:19.868Z,22.35
2023-02-19T17:23:51.232Z,22.36
2023-02-19T17:26:25.293Z,22.36
2023-02-19T17:28:59.696Z,22.36
2023-02-19T17:31:31.107Z,22.38
2023-02-19T17:34:02.367Z,22.38
2023-02-19T17:36:35.337Z,22.39
2023-02-19T17:39:08.773Z,22.39
2023-02-19T17:41:40.164Z,22.35
2023-02-19T17:44:11.535Z,22.44
2023-02-19T17:46:42.805Z,22.44
2023-02-19T17:49:15.716Z,22.45
2023-02-19T17:51:46.769Z,22.47
2023-02-19T17:54:17.924Z,22.50
2023-02-19T17:56:49.359Z,22.52
2023-02-19T17:59:20.473Z,22.53
2023-02-19T18:01:51.548Z,22.53
2023-02-19T18:04:22.477Z,22.54
2023-02-19T18:06:54.248Z,22.56
2023-02-19T18:09:25.321Z,22.58
2023-02-19T18:11:56.290Z,22.58
2023-02-19T18:14:27.512Z,22.57
2023-02-19T18:16:58.633Z,22.57
2023-02-19T18:19:30.234Z,22.58
2023-02-19T18:22:01.199Z,22.57
2023-02-19T18:24:32.121Z,22.56
2023-02-19T18:27:03.497Z,22.56
2023-02-19T18:29:35.182Z,22.56
2023-02-19T18:32:06.522Z,22.55
2023-02-19T18:34:40.115Z,22.56
2023-02-19T18:37:11.130Z,22.56
2023-02-19T18:39:44.039Z,22.55
2023-02-19T18:42:15.414Z,22.55
2023-02-19T18:44:49.310Z,22.57
2023-02-19T18:47:22.481Z,22.57
2023-02-19T18:49:56.022Z,22.55
2023-02-19T18:52:30.081Z,22.55
2023-02-19T18:55:02.579Z,22.54
2023-02-19T18:57:36.688Z,22.54
2023-02-19T19:00:12.069Z,22.53
2023-02-19T19:02:49.670Z,22.51
2023-02-19T19:05:23.848Z,22.50
2023-02-19T19:08:00.060Z,22.51
2023-02-19T19:10:32.356Z,22.49
2023-02-19T19:13:03.708Z,22.49
2023-02-19T19:15:35.394Z,22.49
2023-02-19T19:18:07.101Z,22.47
2023-02-19T19:20:38.191Z,22.47
2023-02-19T19:23:09.444Z,22.47
2023-02-19T19:25:41.046Z,22.46
2023-02-19T19:28:12.560Z,22.45
2023-02-19T19:30:43.796Z,22.43
2023-02-19T19:33:17.729Z,22.40
2023-02-19T19:35:48.862Z,22.38
2023-02-19T19:38:25.332Z,22.35
2023-02-19T19:40:57.692Z,22.32
2023-02-19T19:43:31.894Z,22.32
2023-02-19T19:46:04.698Z,22.27
2023-02-19T19:48:36.055Z,22.33
2023-02-19T19:51:08.200Z,22.33
2023-02-19T19:53:39.377Z,22.32
2023-02-19T19:56:11.319Z,22.32
2023-02-19T19:58:42.584Z,22.33
2023-02-19T20:01:15.181Z,22.32
2023-02-19T20:03:46.445Z,22.31
2023-02-19T20:06:24.221Z,22.27
2023-02-19T20:08:55.913Z,22.27
2023-02-19T20:11:27.089Z,22.28
2023-02-19T20:13:58.334Z,22.28
2023-02-19T20:16:30.464Z,22.26
2023-02-19T20:19:01.918Z,22.23
2023-02-19T20:21:33.948Z,22.22
2023-02-19T20:24:05.584Z,22.23
2023-02-19T20:26:37.140Z,22.22
2023-02-19T20:29:08.218Z,22.21
2023-02-19T20:31:39.294Z,22.19
2023-02-19T20:34:10.434Z,22.18
2023-02-19T20:36:47.040Z,22.17
2023-02-19T20:39:18.923Z,22.15
2023-02-19T20:41:53.329Z,22.15
2023-02-19T20:44:24.878Z,22.13
2023-02-19T20:46:57.461Z,22.12
2023-02-19T20:49:30.661Z,22.12
2023-02-19T20:52:03.461Z,22.10
2023-02-19T20:54:36.123Z,22.08
2023-02-19T20:57:08.114Z,22.07
2023-02-19T20:59:40.876Z,22.07
2023-02-19T21:02:18.145Z,22.08
2023-02-19T21:04:49.322Z,22.07
2023-02-19T21:07:20.513Z,22.07
2023-02-19T21:09:52.266Z,22.06
2023-02-19T21:12:26.484Z,22.06
2023-02-19T21:14:57.910Z,22.06
2023-02-19T21:17:29.575Z,22.06
2023-02-19T21:20:00.534Z,21.97
2023-02-19T21:22:31.688Z,22.04
2023-02-19T21:25:02.658Z,22.05
2023-02-19T21:27:33.690Z,22.04
2023-02-19T21:30:05.074Z,22.06
2023-02-19T21:32:36.017Z,22.06
2023-02-19T21:35:07.801Z,22.06
2023-02-19T21:37:42.355Z,22.07
2023-02-19T21:40:15.431Z,22.09
2023-02-19T21:42:46.388Z,22.09
2023-02-19T21:45:17.529Z,22.07
2023-02-19T21:47:52.125Z,22.05
2023-02-19T21:50:23.821Z,22.06
2023-02-19T21:52:55.299Z,22.07
2023-02-19T21:55:26.441Z,22.06
2023-02-19T21:57:57.819Z,22.06
2023-02-19T22:00:28.639Z,22.06
2023-02-19T22:02:59.602Z,22.04
2023-02-19T22:05:30.498Z,22.07
2023-02-19T22:08:01.780Z,22.12
2023-02-19T22:10:32.707Z,22.16
2023-02-19T22:13:03.550Z,22.21
2023-02-19T22:15:34.783Z,22.27
2023-02-19T22:18:05.952Z,22.28
2023-02-19T22:20:38.530Z,22.31
2023-02-19T22:23:10.166Z,22.33
2023-02-19T22:25:40.883Z,22.33
2023-02-19T22:28:11.659Z,22.33
2023-02-19T22:30:43.154Z,22.34
2023-02-19T22:33:14.058Z,22.34
2023-02-19T22:35:45.302Z,22.33
2023-02-19T22:38:16.054Z,22.33
2023-02-19T22:40:46.883Z,22.35
2023-02-19T22:43:21.230Z,22.37
2023-02-19T22:45:52.014Z,22.38
2023-02-19T22:48:30.042Z,22.37
2023-02-19T22:51:02.543Z,22.36
2023-02-19T22:53:33.446Z,22.35
2023-02-19T22:56:04.290Z,22.33
2023-02-19T22:58:35.192Z,22.34
2023-02-19T23:01:06.509Z,22.33
2023-02-19T23:03:45.546Z,22.33
2023-02-19T23:06:26.115Z,22.32
2023-02-19T23:08:59.063Z,22.32
2023-02-19T23:11:33.812Z,22.32
2023-02-19T23:14:05.275Z,22.32
2023-02-19T23:16:37.564Z,22.33
2023-02-19T23:19:11.950Z,22.31
2023-02-19T23:21:45.996Z,22.31
2023-02-19T23:24:17.746Z,22.28
2023-02-19T23:26:50.811Z,22.24
2023-02-19T23:29:25.302Z,22.22
2023-02-19T23:31:57.247Z,22.21
2023-02-19T23:34:30.221Z,22.20
2023-02-19T23:37:02.458Z,22.18
2023-02-19T23:39:33.410Z,22.14
2023-02-19T23:42:04.272Z,22.15
2023-02-19T23:44:35.284Z,22.16
2023-02-19T23:47:06.331Z,22.16
2023-02-19T23:49:38.055Z,22.14
2023-02-19T23:52:10.544Z,22.12
2023-02-19T23:54:42.553Z,22.08
2023-02-19T23:57:15.215Z,22.07
2023-02-19T23:59:50.152Z,22.05
